createdAt,value
2019-02-16T00:01:55.699Z,15.33
2019-02-16T00:04:09.347Z,12.63
2019-02-16T00:06:25.605Z,14.03
2019-02-16T00:08:39.170Z,16.10
2019-02-16T00:11:00.401Z,11.33
2019-02-16T00:13:11.788Z,11.57
2019-02-16T00:15:22.187Z,20.07
2019-02-16T00:17:26.470Z,13.17
2019-02-16T00:19:45.895Z,20.87
2019-02-16T00:22:01.139Z,12.17
2019-02-16T00:24:16.983Z,20.77
2019-02-16T00:26:34.385Z,20.53
2019-02-16T00:28:49.307Z,14.60
2019-02-16T00:30:55.182Z,12.43
2019-02-16T00:33:08.803Z,11.63
2019-02-16T00:35:21.073Z,13.90
2019-02-16T00:37:24.982Z,17.20
2019-02-16T00:39:36.789Z,10.00
2019-02-16T00:41:48.223Z,13.53
2019-02-16T00:43:55.987Z,9.83
2019-02-16T00:46:06.093Z,7.70
2019-02-16T00:48:25.485Z,13.10
2019-02-16T00:50:36.189Z,13.70
2019-02-16T00:52:47.988Z,20.00
2019-02-16T00:55:09.465Z,14.80
2019-02-16T00:57:27.974Z,18.50
2019-02-16T00:59:42.044Z,16.97
2019-02-16T01:02:02.069Z,11.80
2019-02-16T01:04:16.711Z,8.50
2019-02-16T01:06:28.311Z,14.90
2019-02-16T01:08:43.244Z,18.93
2019-02-16T01:11:01.786Z,13.93
2019-02-16T01:13:11.866Z,10.30
2019-02-16T01:15:22.654Z,10.83
2019-02-16T01:17:35.993Z,10.60
2019-02-16T01:19:51.959Z,11.87
2019-02-16T01:21:58.760Z,11.57
2019-02-16T01:24:07.634Z,10.80
2019-02-16T01:26:16.593Z,7.13
2019-02-16T01:28:31.961Z,14.77
2019-02-16T01:30:39.120Z,11.10
2019-02-16T01:32:51.188Z,9.70
2019-02-16T01:35:00.523Z,7.90
2019-02-16T01:37:14.060Z,13.07
2019-02-16T01:39:31.812Z,18.60
2019-02-16T01:41:41.938Z,10.43
2019-02-16T01:43:52.289Z,9.03
2019-02-16T01:46:00.047Z,9.53
2019-02-16T01:48:04.246Z,11.33
2019-02-16T01:50:09.418Z,14.03
2019-02-16T01:52:14.965Z,9.70
2019-02-16T01:54:18.899Z,13.00
2019-02-16T01:56:32.564Z,13.70
2019-02-16T01:58:36.409Z,9.80
2019-02-16T02:00:40.276Z,8.63
2019-02-16T02:02:44.144Z,12.93
2019-02-16T02:04:49.163Z,12.83
2019-02-16T02:06:52.994Z,15.10
2019-02-16T02:08:56.810Z,9.33
2019-02-16T02:11:00.875Z,11.43
2019-02-16T02:13:04.953Z,11.93
2019-02-16T02:15:09.595Z,10.50
2019-02-16T02:17:13.391Z,16.83
2019-02-16T02:19:17.207Z,12.10
2019-02-16T02:21:21.015Z,14.93
2019-02-16T02:23:24.823Z,12.00
2019-02-16T02:25:28.659Z,12.50
2019-02-16T02:27:32.465Z,10.50
2019-02-16T02:29:36.351Z,11.30
2019-02-16T02:31:40.166Z,17.20
2019-02-16T02:33:44.147Z,12.67
2019-02-16T02:35:48.068Z,11.20
2019-02-16T02:37:52.012Z,11.13
2019-02-16T02:39:55.878Z,13.07
2019-02-16T02:41:59.746Z,14.83
2019-02-16T02:44:03.638Z,12.00
2019-02-16T02:46:07.447Z,29.00
2019-02-16T02:48:11.231Z,21.13
2019-02-16T02:50:16.148Z,8.90
2019-02-16T02:52:20.002Z,12.63
2019-02-16T02:54:23.895Z,9.73
2019-02-16T02:56:27.835Z,21.70
2019-02-16T02:58:32.064Z,13.90
2019-02-16T03:00:40.703Z,10.07
2019-02-16T03:02:51.520Z,16.00
2019-02-16T03:05:00.665Z,13.30
2019-02-16T03:07:04.672Z,8.90
2019-02-16T03:09:12.750Z,13.37
2019-02-16T03:11:19.265Z,16.30
2019-02-16T03:13:59.065Z,20.00
2019-02-16T03:19:50.148Z,15.50
2019-02-16T03:23:05.322Z,16.33
2019-02-16T03:25:45.985Z,11.17
2019-02-16T03:29:26.168Z,11.10
2019-02-16T03:32:24.521Z,16.10
2019-02-16T03:38:48.038Z,11.13
2019-02-16T03:45:20.962Z,15.63
2019-02-16T03:48:11.017Z,13.90
2019-02-16T03:54:31.465Z,10.37
2019-02-16T03:57:44.058Z,12.67
2019-02-16T04:04:18.436Z,11.67
2019-02-16T04:08:42.193Z,16.80
2019-02-16T04:10:54.282Z,17.07
2019-02-16T04:17:36.982Z,15.63
2019-02-16T04:21:09.887Z,14.73
2019-02-16T04:24:09.334Z,10.90
2019-02-16T04:30:50.321Z,13.77
2019-02-16T04:33:56.562Z,11.93
2019-02-16T04:43:12.584Z,11.93
2019-02-16T04:49:39.129Z,15.77
2019-02-16T04:59:14.981Z,17.40
2019-02-16T05:02:32.575Z,11.17
2019-02-16T05:06:14.696Z,18.93
2019-02-16T05:08:51.741Z,12.83
2019-02-16T05:13:34.647Z,17.67
2019-02-16T05:14:38.190Z,16.87
2019-02-16T05:17:52.490Z,13.23
2019-02-16T05:21:23.949Z,23.50
2019-02-16T05:28:25.525Z,14.17
2019-02-16T05:34:30.118Z,15.70
2019-02-16T05:36:49.284Z,12.60
2019-02-16T05:39:16.220Z,14.13
2019-02-16T05:41:25.049Z,17.43
2019-02-16T05:43:36.513Z,17.73
2019-02-16T05:45:48.589Z,18.53
2019-02-16T05:48:06.558Z,16.57
2019-02-16T05:52:00.231Z,20.70
2019-02-16T05:52:43.018Z,23.03
2019-02-16T05:55:18.040Z,19.03
2019-02-16T05:57:48.591Z,16.97
2019-02-16T06:03:21.132Z,20.37
2019-02-16T06:06:18.830Z,16.47
2019-02-16T06:18:00.892Z,22.53
2019-02-16T06:31:15.200Z,23.27
2019-02-16T06:36:56.566Z,21.73
2019-02-16T06:40:01.031Z,25.17
2019-02-16T06:43:19.856Z,20.93
2019-02-16T07:28:42.327Z,17.97
2019-02-16T07:30:57.325Z,18.60
2019-02-16T07:38:51.079Z,13.00
2019-02-16T07:41:25.097Z,13.00
2019-02-16T07:44:23.605Z,18.40
2019-02-16T07:46:57.913Z,20.93
2019-02-16T07:49:17.201Z,14.47
2019-02-16T07:51:49.162Z,20.77
2019-02-16T07:57:26.519Z,14.67
2019-02-16T08:00:20.367Z,13.43
2019-02-16T08:03:08.446Z,13.47
2019-02-16T08:05:37.294Z,23.43
2019-02-16T08:08:13.575Z,25.03
2019-02-16T08:11:39.520Z,16.80
2019-02-16T08:14:02.649Z,20.60
2019-02-16T08:16:33.116Z,16.00
2019-02-16T08:19:30.312Z,13.90
2019-02-16T08:22:31.786Z,21.67
2019-02-16T08:25:13.738Z,14.90
2019-02-16T08:28:24.488Z,17.63
2019-02-16T08:30:50.555Z,14.73
2019-02-16T08:33:21.743Z,19.90
2019-02-16T08:35:56.254Z,23.77
2019-02-16T08:38:42.820Z,19.33
2019-02-16T08:41:27.941Z,17.47
2019-02-16T08:43:57.820Z,26.77
2019-02-16T08:47:25.547Z,26.30
2019-02-16T08:49:52.471Z,52.20
2019-02-16T08:52:56.717Z,32.07
2019-02-16T09:01:32.359Z,24.10
2019-02-16T09:04:34.763Z,41.27
2019-02-16T09:07:31.847Z,13.27
2019-02-16T09:10:29.074Z,16.17
2019-02-16T09:13:22.569Z,18.13
2019-02-16T09:15:53.590Z,16.93
2019-02-16T09:18:40.441Z,15.10
2019-02-16T09:21:42.893Z,11.60
2019-02-16T09:24:23.196Z,21.30
2019-02-16T09:27:18.796Z,13.00
2019-02-16T09:30:31.034Z,14.77
2019-02-16T09:35:44.059Z,15.10
2019-02-16T09:38:37.633Z,15.27
2019-02-16T09:41:48.532Z,14.70
2019-02-16T09:47:40.780Z,12.20
2019-02-16T09:47:52.956Z,19.87
2019-02-16T09:50:54.320Z,28.63
2019-02-16T09:53:55.646Z,15.23
2019-02-16T09:57:00.620Z,12.33
2019-02-16T10:09:24.369Z,16.13
2019-02-16T10:16:14.956Z,15.97
2019-02-16T11:58:04.782Z,29.20
2019-02-16T12:01:08.188Z,27.63
2019-02-16T12:03:23.662Z,50.33
2019-02-16T12:10:19.376Z,40.73
2019-02-16T12:16:52.471Z,27.00
2019-02-16T12:23:10.994Z,28.47
2019-02-16T12:26:10.545Z,32.90
2019-02-16T12:29:22.942Z,37.47
2019-02-16T12:32:27.494Z,30.47
2019-02-16T12:35:41.851Z,37.57
2019-02-16T12:38:52.903Z,33.47
2019-02-16T12:41:53.746Z,39.20
2019-02-16T12:47:58.195Z,36.47
2019-02-16T12:51:59.086Z,42.77
2019-02-16T12:53:42.567Z,43.07
2019-02-16T12:59:17.465Z,37.00
2019-02-16T13:05:48.763Z,38.03
2019-02-16T13:10:57.511Z,38.40
2019-02-16T13:17:53.891Z,36.70
2019-02-16T13:30:14.058Z,39.17
2019-02-16T13:37:09.880Z,36.70
2019-02-16T13:40:17.408Z,36.97
2019-02-16T13:46:19.161Z,40.60
2019-02-16T13:49:00.611Z,34.37
2019-02-16T14:08:40.722Z,43.60
2019-02-16T14:18:24.743Z,43.60
2019-02-16T14:46:21.684Z,29.03
2019-02-16T16:13:18.655Z,33.53
2019-02-16T16:35:30.797Z,33.67
2019-02-16T16:48:07.224Z,35.63
2019-02-16T17:11:37.246Z,40.87
2019-02-16T17:39:18.535Z,38.70
2019-02-16T17:45:50.934Z,29.67
2019-02-16T18:12:23.234Z,37.13
2019-02-16T18:58:25.635Z,42.90
2019-02-16T19:08:59.904Z,42.43
2019-02-16T19:12:44.995Z,41.40
2019-02-16T19:15:18.629Z,42.07
2019-02-16T19:19:17.625Z,42.33
2019-02-16T19:21:31.432Z,47.60
2019-02-16T19:28:09.067Z,45.77
2019-02-16T19:34:30.092Z,36.50
2019-02-16T19:40:36.116Z,89.23
2019-02-16T19:50:26.999Z,51.30
2019-02-16T19:56:24.315Z,66.20
2019-02-16T19:59:47.911Z,49.40
2019-02-16T20:02:39.559Z,51.97
2019-02-16T20:10:05.967Z,60.47
2019-02-16T20:12:05.932Z,49.33
2019-02-16T20:15:04.131Z,51.17
2019-02-16T20:35:43.998Z,59.00
2019-02-16T20:41:20.604Z,60.83
2019-02-16T20:44:41.537Z,64.83
2019-02-16T20:59:47.237Z,63.70
2019-02-16T21:02:09.136Z,60.20
2019-02-16T21:04:44.533Z,51.47
2019-02-16T21:07:26.479Z,68.07
2019-02-16T21:10:03.780Z,47.93
2019-02-16T21:12:24.098Z,52.07
2019-02-16T21:14:47.396Z,61.17
2019-02-16T21:17:40.000Z,71.60
2019-02-16T21:20:06.867Z,64.50
2019-02-16T21:22:44.585Z,66.80
2019-02-16T21:25:22.181Z,65.53
2019-02-16T21:27:57.821Z,73.20
2019-02-16T21:30:25.196Z,68.17
2019-02-16T21:33:18.442Z,75.80
2019-02-16T21:36:10.400Z,66.80
2019-02-16T21:38:41.674Z,56.70
2019-02-16T21:41:29.189Z,66.00
2019-02-16T21:47:06.537Z,65.60
2019-02-16T21:49:53.897Z,62.93
2019-02-16T21:52:29.765Z,61.40
2019-02-16T21:54:59.201Z,70.90
2019-02-16T21:57:35.282Z,68.77
2019-02-16T22:00:06.315Z,70.43
2019-02-16T22:02:36.010Z,57.57
2019-02-16T22:04:58.143Z,75.43
2019-02-16T22:07:40.302Z,66.63
2019-02-16T22:10:00.592Z,61.20
2019-02-16T22:12:23.688Z,75.63
2019-02-16T22:14:31.252Z,69.83
2019-02-16T22:16:40.092Z,57.93
2019-02-16T22:18:54.990Z,63.20
2019-02-16T22:21:03.373Z,66.80
2019-02-16T22:23:14.912Z,75.03
2019-02-16T22:25:30.630Z,84.63
2019-02-16T22:27:37.937Z,69.20
2019-02-16T22:29:42.238Z,72.40
2019-02-16T22:32:03.628Z,73.73
2019-02-16T22:34:11.910Z,67.63
2019-02-16T22:36:21.726Z,75.10
2019-02-16T22:38:44.032Z,80.83
2019-02-16T22:41:00.568Z,72.80
2019-02-16T22:43:14.094Z,81.87
2019-02-16T22:45:33.280Z,82.17
2019-02-16T22:47:52.752Z,82.77
2019-02-16T22:50:10.971Z,89.60
2019-02-16T22:52:21.682Z,86.93
2019-02-16T22:54:39.573Z,90.00
2019-02-16T22:57:10.601Z,81.40
2019-02-16T22:59:28.209Z,99.43
2019-02-16T23:01:39.395Z,74.53
2019-02-16T23:03:59.777Z,83.30
2019-02-16T23:06:08.964Z,78.27
2019-02-16T23:08:26.423Z,94.13
2019-02-16T23:10:36.428Z,72.03
2019-02-16T23:12:52.837Z,78.07
2019-02-16T23:15:08.238Z,79.03
2019-02-16T23:17:39.274Z,80.17
2019-02-16T23:19:56.718Z,83.47
2019-02-16T23:22:10.047Z,85.83
2019-02-16T23:24:32.509Z,82.93
2019-02-16T23:26:48.168Z,78.47
2019-02-16T23:28:56.533Z,76.80
2019-02-16T23:31:11.058Z,79.13
2019-02-16T23:33:47.257Z,91.90
2019-02-16T23:35:56.051Z,100.83
2019-02-16T23:38:06.948Z,84.17
2019-02-16T23:40:17.500Z,77.43
2019-02-16T23:42:38.365Z,77.70
2019-02-16T23:44:56.879Z,88.23
2019-02-16T23:47:12.166Z,87.83
2019-02-16T23:49:27.840Z,87.03
2019-02-16T23:51:40.274Z,91.60
2019-02-16T23:53:54.920Z,83.90
2019-02-16T23:56:05.252Z,77.70
2019-02-16T23:58:35.684Z,87.57
